createdAt,value
2017-11-21T00:00:01.016Z,0.00
2017-11-21T00:01:00.932Z,0.00
2017-11-21T00:02:00.851Z,0.00
2017-11-21T00:03:00.751Z,0.00
2017-11-21T00:04:00.663Z,0.00
2017-11-21T00:05:00.568Z,0.00
2017-11-21T00:06:00.498Z,0.00
2017-11-21T00:07:00.395Z,0.00
2017-11-21T00:08:00.310Z,0.00
2017-11-21T00:09:00.234Z,0.00
2017-11-21T00:10:00.130Z,0.00
2017-11-21T00:11:00.045Z,0.00
2017-11-21T00:11:59.958Z,0.00
2017-11-21T00:12:59.876Z,0.00
2017-11-21T00:13:59.777Z,0.00
2017-11-21T00:14:59.690Z,0.00
2017-11-21T00:15:59.606Z,0.00
2017-11-21T00:16:59.525Z,0.00
2017-11-21T00:17:59.429Z,0.00
2017-11-21T00:18:59.340Z,0.00
2017-11-21T00:19:59.249Z,0.00
2017-11-21T00:20:59.162Z,0.00
2017-11-21T00:21:59.102Z,0.00
2017-11-21T00:22:58.984Z,0.00
2017-11-21T00:23:58.910Z,0.00
2017-11-21T00:24:58.808Z,0.00
2017-11-21T00:25:58.721Z,0.00
2017-11-21T00:26:58.643Z,0.00
2017-11-21T00:27:58.543Z,0.00
2017-11-21T00:28:58.453Z,0.00
2017-11-21T00:29:58.367Z,0.00
2017-11-21T00:30:58.286Z,0.00
2017-11-21T00:31:58.210Z,0.00
2017-11-21T00:32:58.126Z,0.00
2017-11-21T00:33:58.013Z,0.00
2017-11-21T00:34:57.928Z,0.00
2017-11-21T00:35:57.858Z,0.00
2017-11-21T00:36:57.756Z,0.00
2017-11-21T00:37:57.662Z,0.00
2017-11-21T00:38:57.572Z,0.00
2017-11-21T00:39:57.492Z,0.00
2017-11-21T00:40:57.396Z,0.00
2017-11-21T00:41:57.309Z,0.00
2017-11-21T00:42:57.216Z,0.00
2017-11-21T00:43:57.135Z,0.00
2017-11-21T00:44:57.040Z,0.00
2017-11-21T00:45:56.950Z,0.00
2017-11-21T00:46:56.867Z,0.00
2017-11-21T00:47:56.792Z,0.00
2017-11-21T00:48:56.691Z,0.00
2017-11-21T00:49:56.648Z,0.00
2017-11-21T00:50:56.510Z,0.00
2017-11-21T00:51:56.439Z,0.00
2017-11-21T00:52:56.329Z,0.00
2017-11-21T00:53:56.246Z,0.00
2017-11-21T00:54:56.167Z,0.00
2017-11-21T00:55:56.079Z,0.00
2017-11-21T00:56:55.985Z,0.00
2017-11-21T00:57:55.894Z,0.00
2017-11-21T00:58:55.805Z,0.00
2017-11-21T00:59:55.715Z,0.00
2017-11-21T01:00:55.625Z,0.00
2017-11-21T01:01:55.550Z,0.00
2017-11-21T01:02:55.458Z,0.00
2017-11-21T01:03:55.365Z,0.00
2017-11-21T01:04:55.278Z,0.00
2017-11-21T01:05:55.204Z,0.00
2017-11-21T01:06:55.127Z,0.00
2017-11-21T01:07:55.013Z,0.00
2017-11-21T01:08:54.930Z,0.00
2017-11-21T01:09:54.834Z,0.00
2017-11-21T01:10:54.741Z,0.00
2017-11-21T01:11:54.716Z,0.00
2017-11-21T01:12:54.648Z,0.00
2017-11-21T01:13:54.496Z,0.00
2017-11-21T01:14:54.392Z,0.00
2017-11-21T01:15:54.314Z,0.00
2017-11-21T01:16:54.218Z,0.00
2017-11-21T01:17:54.130Z,0.00
2017-11-21T01:18:54.041Z,0.00
2017-11-21T01:19:53.964Z,0.00
2017-11-21T01:20:53.868Z,0.00
2017-11-21T01:21:53.780Z,0.00
2017-11-21T01:22:53.688Z,0.00
2017-11-21T01:23:53.603Z,0.00
2017-11-21T01:24:53.506Z,0.00
2017-11-21T01:25:53.425Z,0.00
2017-11-21T01:26:53.331Z,0.00
2017-11-21T01:27:53.257Z,0.00
2017-11-21T01:28:53.166Z,0.00
2017-11-21T01:29:53.072Z,0.00
2017-11-21T01:30:52.977Z,0.00
2017-11-21T01:31:52.890Z,0.00
2017-11-21T01:32:52.840Z,0.00
2017-11-21T01:33:52.720Z,0.00
2017-11-21T01:34:52.660Z,0.00
2017-11-21T01:35:52.549Z,0.00
2017-11-21T01:36:52.449Z,0.00
2017-11-21T01:37:52.356Z,0.00
2017-11-21T01:38:52.266Z,0.00
2017-11-21T01:39:52.175Z,0.00
2017-11-21T01:40:52.091Z,0.00
2017-11-21T01:41:52.009Z,0.00
2017-11-21T01:42:51.910Z,0.00
2017-11-21T01:43:51.827Z,0.00
2017-11-21T01:44:51.740Z,0.00
2017-11-21T01:45:51.647Z,0.00
2017-11-21T01:46:51.554Z,0.00
2017-11-21T01:47:51.465Z,0.00
2017-11-21T01:48:51.382Z,0.00
2017-11-21T01:49:51.298Z,0.00
2017-11-21T01:50:51.217Z,0.00
2017-11-21T01:51:51.120Z,0.00
2017-11-21T01:52:51.031Z,0.00
2017-11-21T01:53:50.945Z,0.00
2017-11-21T01:54:50.847Z,0.00
2017-11-21T01:55:50.798Z,0.00
2017-11-21T01:56:50.672Z,0.00
2017-11-21T01:57:50.579Z,0.00
2017-11-21T01:58:50.489Z,0.00
2017-11-21T01:59:50.401Z,0.00
2017-11-21T02:00:50.312Z,0.00
2017-11-21T02:01:50.225Z,0.00
2017-11-21T02:02:50.145Z,0.00
2017-11-21T02:03:50.062Z,0.00
2017-11-21T02:04:49.970Z,0.00
2017-11-21T02:05:49.881Z,0.00
2017-11-21T02:06:49.785Z,0.00
2017-11-21T02:07:49.696Z,0.00
2017-11-21T02:08:50.343Z,0.00
2017-11-21T02:09:49.540Z,0.00
2017-11-21T02:10:49.443Z,0.00
2017-11-21T02:11:49.343Z,0.00
2017-11-21T02:12:49.264Z,0.00
2017-11-21T02:13:49.163Z,0.00
2017-11-21T02:14:49.073Z,0.00
2017-11-21T02:15:48.991Z,0.00
2017-11-21T02:16:48.901Z,0.00
2017-11-21T02:17:48.818Z,0.00
2017-11-21T02:18:48.731Z,0.00
2017-11-21T02:19:48.646Z,0.00
2017-11-21T02:20:48.553Z,0.00
2017-11-21T02:21:48.461Z,0.00
2017-11-21T02:22:48.390Z,0.00
2017-11-21T02:23:48.284Z,0.00
2017-11-21T02:24:48.213Z,0.00
2017-11-21T02:25:48.110Z,0.00
2017-11-21T02:26:48.025Z,0.00
2017-11-21T02:27:47.940Z,0.00
2017-11-21T02:28:47.838Z,0.00
2017-11-21T02:29:47.751Z,0.00
2017-11-21T02:30:47.663Z,0.00
2017-11-21T02:31:47.583Z,0.00
2017-11-21T02:32:47.488Z,0.00
2017-11-21T02:33:47.405Z,0.00
2017-11-21T02:34:47.309Z,0.00
2017-11-21T02:35:47.235Z,0.00
2017-11-21T02:36:47.136Z,0.00
2017-11-21T02:37:47.050Z,0.00
2017-11-21T02:38:46.963Z,0.00
2017-11-21T02:39:46.871Z,0.00
2017-11-21T02:40:46.777Z,0.00
2017-11-21T02:41:46.695Z,0.00
2017-11-21T02:42:46.617Z,0.00
2017-11-21T02:43:46.524Z,0.00
2017-11-21T02:44:46.425Z,0.00
2017-11-21T02:45:46.339Z,0.00
2017-11-21T02:46:46.249Z,0.00
2017-11-21T02:47:46.165Z,0.00
2017-11-21T02:48:46.099Z,0.00
2017-11-21T02:49:45.983Z,0.00
2017-11-21T02:50:45.898Z,0.00
2017-11-21T02:51:45.812Z,0.00
2017-11-21T02:52:45.716Z,0.00
2017-11-21T02:53:45.631Z,0.00
2017-11-21T02:54:45.541Z,0.00
2017-11-21T02:55:45.454Z,0.00
2017-11-21T02:56:45.363Z,0.00
2017-11-21T02:57:45.340Z,0.00
2017-11-21T02:58:45.185Z,0.00
2017-11-21T02:59:45.100Z,0.00
2017-11-21T03:00:45.010Z,0.00
2017-11-21T03:01:44.925Z,0.00
2017-11-21T03:02:44.828Z,0.00
2017-11-21T03:03:44.743Z,0.00
2017-11-21T03:04:44.654Z,0.00
2017-11-21T03:05:44.576Z,0.00
2017-11-21T03:06:44.521Z,0.00
2017-11-21T03:07:44.382Z,0.00
2017-11-21T03:08:44.303Z,0.00
2017-11-21T03:09:44.213Z,0.00
2017-11-21T03:10:44.127Z,0.00
2017-11-21T03:11:44.037Z,0.00
2017-11-21T03:12:43.953Z,0.00
2017-11-21T03:13:43.865Z,0.00
2017-11-21T03:14:43.770Z,0.00
2017-11-21T03:15:43.683Z,0.00
2017-11-21T03:16:43.616Z,0.00
2017-11-21T03:17:43.510Z,0.00
2017-11-21T03:18:43.419Z,0.00
2017-11-21T03:19:43.345Z,0.00
2017-11-21T03:20:43.242Z,0.00
2017-11-21T03:21:43.151Z,0.00
2017-11-21T03:22:43.057Z,0.00
2017-11-21T03:23:42.975Z,0.00
2017-11-21T03:24:42.887Z,0.00
2017-11-21T03:25:42.802Z,0.00
2017-11-21T03:26:42.717Z,0.00
2017-11-21T03:27:42.627Z,0.00
2017-11-21T03:28:42.536Z,0.00
2017-11-21T03:29:42.452Z,0.00
2017-11-21T03:30:42.362Z,0.00
2017-11-21T03:31:42.275Z,0.00
2017-11-21T03:32:42.184Z,0.00
2017-11-21T03:33:42.097Z,0.00
2017-11-21T03:34:42.007Z,0.00
2017-11-21T03:35:41.923Z,0.00
2017-11-21T03:36:41.845Z,0.00
2017-11-21T03:37:41.746Z,0.00
2017-11-21T03:38:41.666Z,0.00
2017-11-21T03:39:41.626Z,0.00
2017-11-21T03:40:41.482Z,0.00
2017-11-21T03:41:41.400Z,0.00
2017-11-21T03:42:41.306Z,0.00
2017-11-21T03:43:41.239Z,0.00
2017-11-21T03:44:41.138Z,0.00
2017-11-21T03:45:41.050Z,0.00
2017-11-21T03:46:40.957Z,0.00
2017-11-21T03:47:40.874Z,0.00
2017-11-21T03:48:40.780Z,0.00
2017-11-21T03:49:40.693Z,0.00
2017-11-21T03:50:40.598Z,0.00
2017-11-21T03:51:40.516Z,0.00
2017-11-21T03:52:40.428Z,0.00
2017-11-21T03:53:40.343Z,0.00
2017-11-21T03:54:40.251Z,0.00
2017-11-21T03:55:40.166Z,0.00
2017-11-21T03:56:40.075Z,0.00
2017-11-21T03:57:39.984Z,0.00
2017-11-21T03:58:39.900Z,0.00
2017-11-21T03:59:39.815Z,0.00
2017-11-21T04:00:39.727Z,0.00
2017-11-21T04:01:39.638Z,0.00
2017-11-21T04:02:39.551Z,0.00
2017-11-21T04:03:39.462Z,0.00
2017-11-21T04:04:39.376Z,0.00
2017-11-21T04:05:39.287Z,0.00
2017-11-21T04:06:39.197Z,0.00
2017-11-21T04:07:39.109Z,0.00
2017-11-21T04:08:39.021Z,0.00
2017-11-21T04:09:38.934Z,0.00
2017-11-21T04:10:38.843Z,0.00
2017-11-21T04:11:38.760Z,0.00
2017-11-21T04:12:38.672Z,0.00
2017-11-21T04:13:38.610Z,0.00
2017-11-21T04:14:38.495Z,0.00
2017-11-21T04:15:38.413Z,0.00
2017-11-21T04:16:38.328Z,0.00
2017-11-21T04:17:38.234Z,0.00
2017-11-21T04:18:38.161Z,0.00
2017-11-21T04:19:38.059Z,0.00
2017-11-21T04:20:37.964Z,0.00
2017-11-21T04:21:37.875Z,0.00
2017-11-21T04:22:37.782Z,0.00
2017-11-21T04:23:37.712Z,0.00
2017-11-21T04:24:37.625Z,0.00
2017-11-21T04:25:37.524Z,0.00
2017-11-21T04:26:37.448Z,0.00
2017-11-21T04:27:37.351Z,0.00
2017-11-21T04:28:37.258Z,0.00
2017-11-21T04:29:37.180Z,0.00
2017-11-21T04:30:37.100Z,0.00
2017-11-21T04:31:36.997Z,0.00
2017-11-21T04:32:36.906Z,0.00
2017-11-21T04:33:36.819Z,0.00
2017-11-21T04:34:36.727Z,0.00
2017-11-21T04:35:36.642Z,0.00
2017-11-21T04:36:36.551Z,0.00
2017-11-21T04:37:36.465Z,0.00
2017-11-21T04:38:36.379Z,0.00
2017-11-21T04:39:36.290Z,0.00
2017-11-21T04:40:36.200Z,0.00
2017-11-21T04:41:36.120Z,0.00
2017-11-21T04:42:36.034Z,0.00
2017-11-21T04:43:35.938Z,0.00
2017-11-21T04:44:35.852Z,0.00
2017-11-21T04:45:35.759Z,0.00
2017-11-21T04:46:35.677Z,0.00
2017-11-21T04:47:35.589Z,0.00
2017-11-21T04:48:35.506Z,0.00
2017-11-21T04:49:35.422Z,0.00
2017-11-21T04:50:35.336Z,0.00
2017-11-21T04:51:35.263Z,0.00
2017-11-21T04:52:35.160Z,0.00
2017-11-21T04:53:35.063Z,0.00
2017-11-21T04:54:34.973Z,0.00
2017-11-21T04:55:34.891Z,0.00
2017-11-21T04:56:34.797Z,0.00
2017-11-21T04:57:34.733Z,0.00
2017-11-21T04:58:34.624Z,0.00
2017-11-21T04:59:34.535Z,0.00
2017-11-21T05:00:34.444Z,0.00
2017-11-21T05:01:34.356Z,0.00
2017-11-21T05:02:34.261Z,0.00
2017-11-21T05:03:34.175Z,0.00
2017-11-21T05:04:34.126Z,0.00
2017-11-21T05:05:34.002Z,0.00
2017-11-21T05:06:33.927Z,0.00
2017-11-21T05:07:33.831Z,0.00
2017-11-21T05:08:33.732Z,0.00
2017-11-21T05:09:33.652Z,0.00
2017-11-21T05:10:33.559Z,0.00
2017-11-21T05:11:33.474Z,0.00
2017-11-21T05:12:33.388Z,0.00
2017-11-21T05:13:33.300Z,0.00
2017-11-21T05:14:33.202Z,0.00
2017-11-21T05:15:33.110Z,0.00
2017-11-21T05:16:33.043Z,0.00
2017-11-21T05:17:32.941Z,0.00
2017-11-21T05:18:32.849Z,0.00
2017-11-21T05:19:32.766Z,0.00
2017-11-21T05:20:32.673Z,0.00
2017-11-21T05:21:32.587Z,0.00
2017-11-21T05:22:32.497Z,0.00
2017-11-21T05:23:32.410Z,0.00
2017-11-21T05:24:32.340Z,0.00
2017-11-21T05:25:32.258Z,0.00
2017-11-21T05:26:32.148Z,0.00
2017-11-21T05:27:32.060Z,0.00
2017-11-21T05:28:31.965Z,0.00
2017-11-21T05:29:31.885Z,0.00
2017-11-21T05:30:31.802Z,0.00
2017-11-21T05:31:31.710Z,0.00
2017-11-21T05:32:31.613Z,0.00
2017-11-21T05:33:31.530Z,0.00
2017-11-21T05:34:31.442Z,0.00
2017-11-21T05:35:31.357Z,0.00
2017-11-21T05:36:31.266Z,0.00
2017-11-21T05:37:31.173Z,0.00
2017-11-21T05:38:31.080Z,0.00
2017-11-21T05:39:31.000Z,0.00
2017-11-21T05:40:30.913Z,0.00
2017-11-21T05:41:30.819Z,0.00
2017-11-21T05:42:30.732Z,0.00
2017-11-21T05:43:30.657Z,0.00
2017-11-21T05:44:30.565Z,0.00
2017-11-21T05:45:30.470Z,0.00
2017-11-21T05:46:30.422Z,0.00
2017-11-21T05:47:30.297Z,0.00
2017-11-21T05:48:30.207Z,0.00
2017-11-21T05:49:30.113Z,0.00
2017-11-21T05:50:30.023Z,0.00
2017-11-21T05:51:29.937Z,0.00
2017-11-21T05:52:29.847Z,0.00
2017-11-21T05:53:29.769Z,0.00
2017-11-21T05:54:29.673Z,0.00
2017-11-21T05:55:29.591Z,0.00
2017-11-21T05:56:29.495Z,0.00
2017-11-21T05:57:29.415Z,0.00
2017-11-21T05:58:29.327Z,0.00
2017-11-21T05:59:29.234Z,0.00
2017-11-21T06:00:29.147Z,0.00
2017-11-21T06:01:29.066Z,0.00
2017-11-21T06:02:28.978Z,0.00
2017-11-21T06:03:28.877Z,0.00
2017-11-21T06:04:28.795Z,0.00
2017-11-21T06:05:28.706Z,0.00
2017-11-21T06:06:28.619Z,0.00
2017-11-21T06:07:28.533Z,0.00
2017-11-21T06:08:28.449Z,0.00
2017-11-21T06:09:28.350Z,0.00
2017-11-21T06:10:28.267Z,0.00
2017-11-21T06:11:28.174Z,0.00
2017-11-21T06:12:28.090Z,0.00
2017-11-21T06:13:27.996Z,0.00
2017-11-21T06:14:27.934Z,0.00
2017-11-21T06:15:27.829Z,0.00
2017-11-21T06:16:27.728Z,0.00
2017-11-21T06:17:27.651Z,0.00
2017-11-21T06:18:27.562Z,0.00
2017-11-21T06:19:27.465Z,0.00
2017-11-21T06:20:27.379Z,0.00
2017-11-21T06:21:27.293Z,0.00
2017-11-21T06:22:27.207Z,4.00
2017-11-21T06:23:27.119Z,4.00
2017-11-21T06:24:27.025Z,4.00
2017-11-21T06:25:26.945Z,4.00
2017-11-21T06:26:26.847Z,4.00
2017-11-21T06:27:26.762Z,4.00
2017-11-21T06:28:26.675Z,8.00
2017-11-21T06:29:26.584Z,4.00
2017-11-21T06:30:26.496Z,8.00
2017-11-21T06:31:26.412Z,8.00
2017-11-21T06:32:26.321Z,8.00
2017-11-21T06:33:26.230Z,12.00
2017-11-21T06:34:26.140Z,12.00
2017-11-21T06:35:26.060Z,16.00
2017-11-21T06:36:25.961Z,16.00
2017-11-21T06:37:25.957Z,20.00
2017-11-21T06:38:25.797Z,20.00
2017-11-21T06:39:25.700Z,20.00
2017-11-21T06:40:25.606Z,16.00
2017-11-21T06:41:25.529Z,20.00
2017-11-21T06:42:25.432Z,16.00
2017-11-21T06:43:25.342Z,16.00
2017-11-21T06:44:25.261Z,24.00
2017-11-21T06:45:25.181Z,24.00
2017-11-21T06:46:25.076Z,28.00
2017-11-21T06:47:24.992Z,32.00
2017-11-21T06:48:24.910Z,40.00
2017-11-21T06:49:24.820Z,40.00
2017-11-21T06:50:24.760Z,36.00
2017-11-21T06:51:24.643Z,40.00
2017-11-21T06:52:24.559Z,44.00
2017-11-21T06:53:24.470Z,48.00
2017-11-21T06:54:24.372Z,44.00
2017-11-21T06:55:24.293Z,48.00
2017-11-21T06:56:24.212Z,56.00
2017-11-21T06:57:24.120Z,60.00
2017-11-21T06:58:24.031Z,68.00
2017-11-21T06:59:23.951Z,68.00
2017-11-21T07:00:23.852Z,72.00
2017-11-21T07:01:23.760Z,76.00
2017-11-21T07:02:23.682Z,80.00
2017-11-21T07:03:23.596Z,84.00
2017-11-21T07:04:23.503Z,88.00
2017-11-21T07:05:23.406Z,112.00
2017-11-21T07:06:23.326Z,136.00
2017-11-21T07:07:23.236Z,148.00
2017-11-21T07:08:23.147Z,148.00
2017-11-21T07:09:23.062Z,164.00
2017-11-21T07:10:22.970Z,176.00
2017-11-21T07:11:22.893Z,184.00
2017-11-21T07:12:22.795Z,192.00
2017-11-21T07:13:22.708Z,200.00
2017-11-21T07:14:22.627Z,204.00
2017-11-21T07:15:22.531Z,212.00
2017-11-21T07:16:22.447Z,188.00
2017-11-21T07:17:22.361Z,180.00
2017-11-21T07:18:22.267Z,212.00
2017-11-21T07:19:22.177Z,252.00
2017-11-21T07:20:22.088Z,268.00
2017-11-21T07:21:22.003Z,264.00
2017-11-21T07:22:21.907Z,284.00
2017-11-21T07:23:21.822Z,304.00
2017-11-21T07:24:21.738Z,320.00
2017-11-21T07:25:21.644Z,352.00
2017-11-21T07:26:21.553Z,356.00
2017-11-21T07:27:21.469Z,356.00
2017-11-21T07:28:21.378Z,356.00
2017-11-21T07:29:21.295Z,344.00
2017-11-21T07:30:21.220Z,364.00
2017-11-21T07:31:21.119Z,372.00
2017-11-21T07:32:21.038Z,360.00
2017-11-21T07:33:20.943Z,392.00
2017-11-21T07:34:20.849Z,412.00
2017-11-21T07:35:20.760Z,392.00
2017-11-21T07:36:20.673Z,376.00
2017-11-21T07:37:20.585Z,396.00
2017-11-21T07:38:20.498Z,392.00
2017-11-21T07:39:20.408Z,344.00
2017-11-21T07:40:20.324Z,344.00
2017-11-21T07:41:20.271Z,372.00
2017-11-21T07:42:20.152Z,432.00
2017-11-21T07:43:20.066Z,444.00
2017-11-21T07:44:19.971Z,460.00
2017-11-21T07:45:19.878Z,444.00
2017-11-21T07:46:19.796Z,544.00
2017-11-21T07:47:19.704Z,600.00
2017-11-21T07:48:19.614Z,672.00
2017-11-21T07:49:19.525Z,624.00
2017-11-21T07:50:19.438Z,720.00
2017-11-21T07:51:19.344Z,752.00
2017-11-21T07:52:19.264Z,832.00
2017-11-21T07:53:19.170Z,1016.00
2017-11-21T07:54:19.090Z,1096.00
2017-11-21T07:55:18.991Z,1184.00
2017-11-21T07:56:18.916Z,1080.00
2017-11-21T07:57:18.816Z,992.00
2017-11-21T07:58:18.736Z,944.00
2017-11-21T07:59:18.644Z,780.00
2017-11-21T08:00:18.556Z,772.00
2017-11-21T08:01:18.459Z,648.00
2017-11-21T08:02:18.375Z,560.00
2017-11-21T08:03:18.286Z,572.00
2017-11-21T08:04:18.201Z,652.00
2017-11-21T08:05:18.109Z,720.00
2017-11-21T08:06:18.020Z,840.00
2017-11-21T08:07:17.931Z,936.00
2017-11-21T08:08:17.840Z,872.00
2017-11-21T08:09:17.774Z,832.00
2017-11-21T08:10:17.680Z,856.00
2017-11-21T08:11:17.599Z,840.00
2017-11-21T08:12:17.489Z,1008.00
2017-11-21T08:13:17.401Z,1056.00
2017-11-21T08:14:17.307Z,1168.00
2017-11-21T08:15:17.231Z,1188.00
2017-11-21T08:16:17.138Z,1140.00
2017-11-21T08:17:17.044Z,1112.00
2017-11-21T08:18:16.957Z,1088.00
2017-11-21T08:19:16.867Z,972.00
2017-11-21T08:20:16.782Z,928.00
2017-11-21T08:21:16.690Z,904.00
2017-11-21T08:22:16.604Z,892.00
2017-11-21T08:23:16.520Z,824.00
2017-11-21T08:24:16.428Z,744.00
2017-11-21T08:25:16.340Z,668.00
2017-11-21T08:26:16.250Z,616.00
2017-11-21T08:27:16.161Z,548.00
2017-11-21T08:28:16.076Z,516.00
2017-11-21T08:29:15.983Z,540.00
2017-11-21T08:30:15.908Z,504.00
2017-11-21T08:31:15.808Z,492.00
2017-11-21T08:32:15.718Z,512.00
2017-11-21T08:33:15.643Z,572.00
2017-11-21T08:34:15.540Z,588.00
2017-11-21T08:35:15.457Z,612.00
2017-11-21T08:36:15.378Z,624.00
2017-11-21T08:37:15.280Z,664.00
2017-11-21T08:38:15.192Z,720.00
2017-11-21T08:39:15.101Z,804.00
2017-11-21T08:40:15.018Z,836.00
2017-11-21T08:41:14.926Z,868.00
2017-11-21T08:42:14.838Z,908.00
2017-11-21T08:43:14.749Z,988.00
2017-11-21T08:44:14.665Z,1172.00
2017-11-21T08:45:14.576Z,1260.00
2017-11-21T08:46:14.484Z,1188.00
2017-11-21T08:47:14.400Z,1072.00
2017-11-21T08:48:14.310Z,964.00
2017-11-21T08:49:14.225Z,960.00
2017-11-21T08:50:14.133Z,940.00
2017-11-21T08:51:14.048Z,900.00
2017-11-21T08:52:13.963Z,892.00
2017-11-21T08:53:13.873Z,884.00
2017-11-21T08:54:13.789Z,848.00
2017-11-21T08:55:13.698Z,836.00
2017-11-21T08:56:13.605Z,880.00
2017-11-21T08:57:13.511Z,936.00
2017-11-21T08:58:13.429Z,908.00
2017-11-21T08:59:13.341Z,992.00
2017-11-21T09:00:13.249Z,1020.00
2017-11-21T09:01:13.170Z,1140.00
2017-11-21T09:02:13.072Z,1208.00
2017-11-21T09:03:12.986Z,1364.00
2017-11-21T09:04:12.900Z,1540.00
2017-11-21T09:05:12.810Z,1712.00
2017-11-21T09:06:12.741Z,1832.00
2017-11-21T09:07:12.671Z,1932.00
2017-11-21T09:08:12.541Z,2036.00
2017-11-21T09:09:12.466Z,2240.00
2017-11-21T09:10:12.369Z,2168.00
2017-11-21T09:11:12.289Z,2028.00
2017-11-21T09:12:12.189Z,1864.00
2017-11-21T09:13:12.106Z,1680.00
2017-11-21T09:14:12.021Z,1848.00
2017-11-21T09:15:11.930Z,1872.00
2017-11-21T09:16:11.849Z,1852.00
2017-11-21T09:17:11.763Z,1928.00
2017-11-21T09:18:11.661Z,2028.00
2017-11-21T09:19:11.602Z,2040.00
2017-11-21T09:20:11.484Z,1908.00
2017-11-21T09:21:11.409Z,1788.00
2017-11-21T09:22:11.314Z,1760.00
2017-11-21T09:23:11.220Z,1652.00
2017-11-21T09:24:11.138Z,1696.00
2017-11-21T09:25:11.042Z,1804.00
2017-11-21T09:26:10.963Z,1864.00
2017-11-21T09:27:10.869Z,2012.00
2017-11-21T09:28:10.798Z,2092.00
2017-11-21T09:29:10.697Z,1996.00
2017-11-21T09:30:10.631Z,1844.00
2017-11-21T09:31:10.516Z,1904.00
2017-11-21T09:32:10.429Z,1948.00
2017-11-21T09:33:10.343Z,2076.00
2017-11-21T09:34:10.270Z,2272.00
2017-11-21T09:35:10.164Z,2224.00
2017-11-21T09:36:10.076Z,2188.00
2017-11-21T09:37:09.990Z,1912.00
2017-11-21T09:38:09.903Z,1944.00
2017-11-21T09:39:09.813Z,2112.00
2017-11-21T09:40:09.729Z,2216.00
2017-11-21T09:41:09.667Z,2348.00
2017-11-21T09:42:09.556Z,2572.00
2017-11-21T09:43:09.459Z,2616.00
2017-11-21T09:44:09.373Z,2452.00
2017-11-21T09:45:09.296Z,2664.00
2017-11-21T09:46:09.191Z,2376.00
2017-11-21T09:47:09.117Z,2540.00
2017-11-21T09:48:09.030Z,2552.00
2017-11-21T09:49:08.940Z,2176.00
2017-11-21T09:50:08.874Z,2120.00
2017-11-21T09:51:08.765Z,1940.00
2017-11-21T09:52:08.668Z,2564.00
2017-11-21T09:53:08.598Z,2696.00
2017-11-21T09:54:08.524Z,2272.00
2017-11-21T09:55:08.403Z,2028.00
2017-11-21T09:56:08.327Z,1948.00
2017-11-21T09:57:08.234Z,2240.00
2017-11-21T09:58:08.143Z,2552.00
2017-11-21T09:59:08.055Z,2636.00
2017-11-21T10:00:07.972Z,2500.00
2017-11-21T10:01:07.883Z,2504.00
2017-11-21T10:02:07.798Z,2604.00
2017-11-21T10:03:07.706Z,2724.00
2017-11-21T10:04:07.619Z,2936.00
2017-11-21T10:05:07.538Z,3168.00
2017-11-21T10:06:07.454Z,3208.00
2017-11-21T10:07:07.365Z,3376.00
2017-11-21T10:08:07.272Z,3600.00
2017-11-21T10:09:07.194Z,3612.00
2017-11-21T10:10:07.098Z,3052.00
2017-11-21T10:11:07.012Z,3140.00
2017-11-21T10:12:06.929Z,2984.00
2017-11-21T10:13:06.833Z,3416.00
2017-11-21T10:14:06.743Z,3048.00
2017-11-21T10:15:06.669Z,3240.00
2017-11-21T10:16:06.606Z,3436.00
2017-11-21T10:17:06.497Z,3740.00
2017-11-21T10:18:06.402Z,4064.00
2017-11-21T10:19:06.305Z,4088.00
2017-11-21T10:20:06.235Z,4356.00
2017-11-21T10:21:06.134Z,4560.00
2017-11-21T10:22:06.048Z,4692.00
2017-11-21T10:23:05.966Z,4764.00
2017-11-21T10:24:05.876Z,4348.00
2017-11-21T10:25:05.791Z,3804.00
2017-11-21T10:26:05.696Z,3948.00
2017-11-21T10:27:05.608Z,4328.00
2017-11-21T10:28:05.531Z,4328.00
2017-11-21T10:29:05.442Z,4404.00
2017-11-21T10:30:05.367Z,4956.00
2017-11-21T10:31:05.263Z,6452.00
2017-11-21T10:32:05.180Z,7692.00
2017-11-21T10:33:05.094Z,9608.00
2017-11-21T10:34:05.014Z,10148.00
2017-11-21T10:35:04.912Z,8932.00
2017-11-21T10:36:04.850Z,8056.00
2017-11-21T10:37:04.741Z,7392.00
2017-11-21T10:38:04.646Z,7108.00
2017-11-21T10:39:04.564Z,6504.00
2017-11-21T10:40:04.477Z,5440.00
2017-11-21T10:41:04.396Z,4520.00
2017-11-21T10:42:04.300Z,4028.00
2017-11-21T10:43:04.237Z,3648.00
2017-11-21T10:44:04.127Z,3544.00
2017-11-21T10:45:04.052Z,3488.00
2017-11-21T10:46:03.965Z,3180.00
2017-11-21T10:47:03.876Z,3056.00
2017-11-21T10:48:03.788Z,3056.00
2017-11-21T10:49:03.698Z,3032.00
2017-11-21T10:50:03.607Z,2904.00
2017-11-21T10:51:03.531Z,2648.00
2017-11-21T10:52:03.461Z,2464.00
2017-11-21T10:53:03.361Z,2336.00
2017-11-21T10:54:03.261Z,2472.00
2017-11-21T10:55:03.176Z,2764.00
2017-11-21T10:56:03.086Z,2864.00
2017-11-21T10:57:03.060Z,3152.00
2017-11-21T10:58:02.909Z,3404.00
2017-11-21T10:59:02.828Z,3608.00
2017-11-21T11:00:02.742Z,3628.00
2017-11-21T11:01:02.651Z,3480.00
2017-11-21T11:02:02.566Z,3708.00
2017-11-21T11:03:02.474Z,3880.00
2017-11-21T11:04:02.392Z,3456.00
2017-11-21T11:05:02.302Z,3028.00
2017-11-21T11:06:02.216Z,2892.00
2017-11-21T11:07:02.133Z,3044.00
2017-11-21T11:08:02.043Z,3244.00
2017-11-21T11:09:01.958Z,3616.00
2017-11-21T11:10:01.874Z,4116.00
2017-11-21T11:11:01.794Z,4356.00
2017-11-21T11:12:01.695Z,4532.00
2017-11-21T11:13:01.611Z,4324.00
2017-11-21T11:14:01.520Z,4296.00
2017-11-21T11:15:01.440Z,4672.00
2017-11-21T11:16:01.353Z,4752.00
2017-11-21T11:17:01.266Z,4676.00
2017-11-21T11:18:01.178Z,4292.00
2017-11-21T11:19:01.092Z,4420.00
2017-11-21T11:20:01.005Z,4376.00
2017-11-21T11:21:00.923Z,4484.00
2017-11-21T11:22:00.831Z,4160.00
2017-11-21T11:23:00.745Z,3876.00
2017-11-21T11:24:00.660Z,3832.00
2017-11-21T11:25:00.576Z,3936.00
2017-11-21T11:26:00.492Z,3732.00
2017-11-21T11:27:00.396Z,3876.00
2017-11-21T11:28:00.315Z,3840.00
2017-11-21T11:29:00.219Z,3820.00
2017-11-21T11:30:00.138Z,3660.00
2017-11-21T11:31:00.056Z,3824.00
2017-11-21T11:31:59.962Z,3748.00
2017-11-21T11:32:59.877Z,3596.00
2017-11-21T11:33:59.839Z,3720.00
2017-11-21T11:34:59.709Z,3300.00
2017-11-21T11:35:59.620Z,3100.00
2017-11-21T11:36:59.529Z,3036.00
2017-11-21T11:37:59.464Z,2992.00
2017-11-21T11:38:59.363Z,2892.00
2017-11-21T11:39:59.275Z,3028.00
2017-11-21T11:40:59.185Z,3128.00
2017-11-21T11:41:59.104Z,3132.00
2017-11-21T11:42:59.008Z,3184.00
2017-11-21T11:43:58.918Z,3184.00
2017-11-21T11:44:58.834Z,3176.00
2017-11-21T11:45:58.741Z,3512.00
2017-11-21T11:46:58.657Z,3656.00
2017-11-21T11:47:58.574Z,3776.00
2017-11-21T11:48:58.490Z,4024.00
2017-11-21T11:49:58.396Z,3628.00
2017-11-21T11:50:58.309Z,3556.00
2017-11-21T11:51:58.231Z,3504.00
2017-11-21T11:52:58.139Z,3524.00
2017-11-21T11:53:58.053Z,3500.00
2017-11-21T11:54:57.966Z,3520.00
2017-11-21T11:55:57.875Z,3612.00
2017-11-21T11:56:57.793Z,3580.00
2017-11-21T11:57:57.707Z,3584.00
2017-11-21T11:58:57.625Z,3656.00
2017-11-21T11:59:57.530Z,3780.00
2017-11-21T12:00:57.457Z,3904.00
2017-11-21T12:01:57.358Z,3928.00
2017-11-21T12:02:57.277Z,3996.00
2017-11-21T12:03:57.192Z,3832.00
2017-11-21T12:04:57.096Z,3804.00
2017-11-21T12:05:57.005Z,3836.00
2017-11-21T12:06:56.922Z,3788.00
2017-11-21T12:07:56.836Z,3752.00
2017-11-21T12:08:56.764Z,3740.00
2017-11-21T12:09:56.668Z,3704.00
2017-11-21T12:10:56.578Z,3776.00
2017-11-21T12:11:56.508Z,3968.00
2017-11-21T12:12:56.444Z,4164.00
2017-11-21T12:13:56.316Z,4424.00
2017-11-21T12:14:56.302Z,4296.00
2017-11-21T12:15:56.201Z,4580.00
2017-11-21T12:16:56.072Z,4360.00
2017-11-21T12:17:55.977Z,4608.00
2017-11-21T12:18:55.896Z,5624.00
2017-11-21T12:19:55.916Z,7244.00
2017-11-21T12:20:55.767Z,6940.00
2017-11-21T12:21:55.640Z,6148.00
2017-11-21T12:22:55.547Z,6484.00
2017-11-21T12:23:55.461Z,6596.00
2017-11-21T12:24:55.384Z,8320.00
2017-11-21T12:25:55.291Z,9548.00
2017-11-21T12:26:55.213Z,11160.00
2017-11-21T12:27:55.121Z,10700.00
2017-11-21T12:28:55.037Z,10156.00
2017-11-21T12:29:54.958Z,10540.00
2017-11-21T12:30:54.858Z,10816.00
2017-11-21T12:31:54.783Z,10536.00
2017-11-21T12:32:54.691Z,10484.00
2017-11-21T12:33:54.629Z,10336.00
2017-11-21T12:34:54.522Z,10088.00
2017-11-21T12:42:45.490Z,8524.00
2017-11-21T12:43:06.265Z,8372.00
2017-11-21T12:45:00.497Z,8164.00
2017-11-21T12:46:00.399Z,7972.00
2017-11-21T12:47:54.662Z,7612.00
2017-11-21T12:48:54.591Z,7496.00
2017-11-21T12:50:48.801Z,7312.00
2017-11-21T12:51:48.695Z,7264.00
2017-11-21T12:53:42.964Z,7344.00
2017-11-21T12:54:42.869Z,7396.00